Time,TemperatureF,DewpointF,PressureIn,WindDirection,WindDirectionDegrees,WindSpeedMPH,WindSpeedGustMPH,Humidity,HourlyPrecipIn,Conditions,Clouds,dailyrainin,SoftwareType,DateUTC
2013-05-03 00:21:00,62.0,57.0,29.99,North,350,2.0,-999.0,85,0.00,,,-99.99,,2013-05-03 07:21:00,
2013-05-03 00:31:00,62.0,57.0,29.99,North,350,2.0,-999.0,85,0.00,,,-99.99,,2013-05-03 07:31:00,
2013-05-03 00:42:00,62.0,57.0,29.99,North,350,2.0,-999.0,85,0.00,,,-99.99,,2013-05-03 07:42:00,
2013-05-03 01:21:00,62.0,55.0,29.98,NNE,30,2.0,-999.0,79,0.00,,,-99.99,,2013-05-03 08:21:00,
2013-05-03 01:31:00,62.0,55.0,29.98,NNE,30,2.0,-999.0,79,0.00,,,-99.99,,2013-05-03 08:31:00,
2013-05-03 01:42:00,62.0,55.0,29.98,NNE,30,2.0,-999.0,79,0.00,,,-99.99,,2013-05-03 08:42:00,
2013-05-03 02:21:00,61.0,47.0,29.95,NNW,330,7.0,-999.0,61,0.00,,,-99.99,,2013-05-03 09:21:00,
2013-05-03 02:32:00,61.0,47.0,29.95,NNW,330,7.0,-999.0,61,0.00,,,-99.99,,2013-05-03 09:32:00,
2013-05-03 02:42:00,61.0,47.0,29.95,NNW,330,7.0,-999.0,61,0.00,,,-99.99,,2013-05-03 09:42:00,
2013-05-03 03:22:00,61.0,42.0,29.93,NNE,30,2.0,-999.0,49,0.00,,,-99.99,,2013-05-03 10:22:00,
2013-05-03 03:32:00,61.0,42.0,29.93,NNE,30,2.0,-999.0,49,0.00,,,-99.99,,2013-05-03 10:32:00,
2013-05-03 03:42:00,61.0,42.0,29.93,NNE,30,2.0,-999.0,49,0.00,,,-99.99,,2013-05-03 10:42:00,
2013-05-03 04:22:00,61.0,50.0,29.93,ENE,70,3.0,-999.0,68,0.00,,,-99.99,,2013-05-03 11:22:00,
2013-05-03 04:31:00,61.0,50.0,29.93,ENE,70,3.0,-999.0,68,0.00,,,-99.99,,2013-05-03 11:31:00,
2013-05-03 05:21:00,59.0,47.0,29.91,North,0,0.0,-999.0,65,0.00,,,-99.99,,2013-05-03 12:21:00,
2013-05-03 05:32:00,59.0,47.0,29.91,North,0,0.0,-999.0,65,0.00,,,-99.99,,2013-05-03 12:32:00,
2013-05-03 06:22:00,59.0,50.0,29.90,North,10,2.0,-999.0,72,0.00,,,-99.99,,2013-05-03 13:22:00,
2013-05-03 06:32:00,59.0,50.0,29.90,North,10,2.0,-999.0,72,0.00,,,-99.99,,2013-05-03 13:32:00,
2013-05-03 07:21:00,59.0,48.0,29.91,NNE,30,3.0,-999.0,66,0.00,,,-99.99,,2013-05-03 14:21:00,
2013-05-03 07:32:00,59.0,48.0,29.91,NNE,30,3.0,-999.0,66,0.00,,,-99.99,,2013-05-03 14:32:00,
2013-05-03 08:22:00,63.0,52.0,29.90,North,0,0.0,-999.0,68,0.00,,,-99.99,,2013-05-03 15:22:00,
2013-05-03 08:32:00,63.0,52.0,29.90,North,0,0.0,-999.0,68,0.00,,,-99.99,,2013-05-03 15:32:00,
2013-05-03 09:22:00,65.0,53.0,29.90,North,0,0.0,-999.0,65,0.00,,,-99.99,,2013-05-03 16:22:00,
2013-05-03 09:32:00,65.0,53.0,29.90,North,0,0.0,-999.0,65,0.00,,,-99.99,,2013-05-03 16:32:00,
2013-05-03 09:42:00,65.0,53.0,29.90,North,0,0.0,-999.0,65,0.00,,,-99.99,,2013-05-03 16:42:00,
2013-05-03 10:23:00,68.0,52.0,29.90,North,0,0.0,-999.0,57,0.00,,,-99.99,,2013-05-03 17:23:00,
2013-05-03 10:32:00,68.0,52.0,29.90,North,0,0.0,-999.0,57,0.00,,,-99.99,,2013-05-03 17:32:00,
2013-05-03 10:42:00,68.0,52.0,29.90,North,0,0.0,-999.0,57,0.00,,,-99.99,,2013-05-03 17:42:00,
2013-05-03 11:21:00,65.0,58.0,29.89,West,280,5.0,-999.0,77,0.00,,,-99.99,,2013-05-03 18:21:00,
2013-05-03 11:32:00,65.0,58.0,29.89,West,280,5.0,-999.0,77,0.00,,,-99.99,,2013-05-03 18:32:00,
2013-05-03 12:21:00,65.0,59.0,29.88,NW,310,6.0,-999.0,80,0.00,,,-99.99,,2013-05-03 19:21:00,
2013-05-03 12:32:00,65.0,59.0,29.88,NW,310,6.0,-999.0,80,0.00,,,-99.99,,2013-05-03 19:32:00,
2013-05-03 13:21:00,66.0,61.0,29.87,West,260,2.0,-999.0,84,0.00,,,-99.99,,2013-05-03 20:21:00,
2013-05-03 13:31:00,66.0,61.0,29.87,West,260,2.0,-999.0,84,0.00,,,-99.99,,2013-05-03 20:31:00,
2013-05-03 14:21:00,68.0,56.0,29.84,NW,310,7.0,-999.0,66,0.00,,,-99.99,,2013-05-03 21:21:00,
2013-05-03 14:33:00,68.0,56.0,29.84,NW,310,7.0,-999.0,66,0.00,,,-99.99,,2013-05-03 21:33:00,
2013-05-03 15:22:00,67.0,60.0,29.82,WNW,300,5.0,-999.0,78,0.00,,,-99.99,,2013-05-03 22:22:00,
2013-05-03 15:32:00,67.0,60.0,29.82,WNW,300,5.0,-999.0,78,0.00,,,-99.99,,2013-05-03 22:32:00,
2013-05-03 17:22:00,69.0,55.0,29.77,North,0,0.0,-999.0,62,0.00,,,-99.99,,2013-05-04 00:22:00,
2013-05-03 17:31:00,69.0,55.0,29.77,North,0,0.0,-999.0,62,0.00,,,-99.99,,2013-05-04 00:31:00,
2013-05-03 18:21:00,69.0,59.0,29.77,SSE,160,9.0,-999.0,71,0.00,,,-99.99,,2013-05-04 01:21:00,
2013-05-03 18:31:00,69.0,59.0,29.77,SSE,160,9.0,-999.0,71,0.00,,,-99.99,,2013-05-04 01:31:00,
2013-05-03 19:21:00,66.0,61.0,29.78,SSE,150,7.0,-999.0,83,0.00,,,-99.99,,2013-05-04 02:21:00,
2013-05-03 19:32:00,66.0,61.0,29.78,SSE,150,7.0,-999.0,83,0.00,,,-99.99,,2013-05-04 02:32:00,
2013-05-03 20:21:00,65.0,60.0,29.79,SE,140,13.0,-999.0,83,0.00,,,-99.99,,2013-05-04 03:21:00,
2013-05-03 20:33:00,65.0,60.0,29.79,SE,140,13.0,-999.0,83,0.00,,,-99.99,,2013-05-04 03:33:00,
2013-05-03 20:43:00,65.0,60.0,29.79,SE,140,13.0,-999.0,83,0.00,,,-99.99,,2013-05-04 03:43:00,
2013-05-03 21:22:00,65.0,61.0,29.80,ESE,120,13.0,-999.0,86,0.00,,,-99.99,,2013-05-04 04:22:00,
2013-05-03 21:32:00,65.0,61.0,29.80,ESE,120,13.0,-999.0,86,0.00,,,-99.99,,2013-05-04 04:32:00,
2013-05-03 21:42:00,65.0,61.0,29.80,ESE,120,13.0,-999.0,86,0.00,,,-99.99,,2013-05-04 04:42:00,
2013-05-03 22:22:00,64.0,59.0,29.81,SE,130,8.0,-999.0,84,0.00,,,-99.99,,2013-05-04 05:22:00,
2013-05-03 22:32:00,64.0,59.0,29.81,SE,130,8.0,-999.0,84,0.00,,,-99.99,,2013-05-04 05:32:00,
2013-05-03 22:42:00,64.0,59.0,29.81,SE,130,8.0,-999.0,84,0.00,,,-99.99,,2013-05-04 05:42:00,
2013-05-03 23:21:00,63.0,56.0,29.80,ESE,110,6.0,-999.0,77,0.00,,,-99.99,,2013-05-04 06:21:00,
2013-05-03 23:32:00,63.0,56.0,29.80,ESE,110,6.0,-999.0,77,0.00,,,-99.99,,2013-05-04 06:32:00,
2013-05-03 23:41:00,63.0,56.0,29.80,ESE,110,6.0,-999.0,77,0.00,,,-99.99,,2013-05-04 06:41:00,